createdAt,value
2016-01-31T10:26:26.852Z,36
2016-01-31T10:26:44.696Z,36
2016-01-31T10:27:03.071Z,36
2016-01-31T10:27:21.371Z,36
2016-01-31T10:27:39.668Z,37
2016-01-31T10:27:57.980Z,37
2016-01-31T10:28:16.261Z,38
2016-01-31T10:28:34.561Z,37
2016-01-31T10:28:52.842Z,38
2016-01-31T10:29:11.171Z,39
2016-01-31T10:29:29.469Z,39
2016-01-31T10:29:47.751Z,40
2016-01-31T10:30:06.063Z,40
2016-01-31T10:30:24.394Z,40
2016-01-31T10:30:42.754Z,41
2016-01-31T10:31:01.097Z,41
2016-01-31T10:31:19.429Z,41
2016-01-31T10:31:37.788Z,41
2016-01-31T10:31:56.100Z,41
2016-01-31T10:32:14.413Z,41
2016-01-31T10:32:32.774Z,41
2016-01-31T10:32:51.087Z,41
2016-01-31T10:33:09.352Z,41
2016-01-31T10:33:27.668Z,42
2016-01-31T10:33:45.949Z,42
2016-01-31T10:34:04.262Z,42
2016-01-31T10:34:22.562Z,42
2016-01-31T10:34:40.891Z,42
2016-01-31T10:34:59.203Z,42
2016-01-31T10:35:17.562Z,42
2016-01-31T10:35:35.894Z,42
2016-01-31T10:35:54.159Z,42
2016-01-31T10:36:12.519Z,42
2016-01-31T10:36:30.817Z,42
2016-01-31T10:36:49.114Z,42
2016-01-31T10:37:07.396Z,43
2016-01-31T10:37:25.711Z,43
2016-01-31T10:37:44.055Z,43
2016-01-31T10:38:02.336Z,43
2016-01-31T10:38:20.635Z,43
2016-01-31T10:38:38.979Z,43
2016-01-31T10:38:57.260Z,43
2016-01-31T10:39:15.526Z,43
2016-01-31T10:39:33.810Z,43
2016-01-31T10:39:52.075Z,43
2016-01-31T10:40:10.357Z,43
2016-01-31T10:40:28.641Z,43
2016-01-31T10:40:46.907Z,43
2016-01-31T10:41:05.188Z,43
2016-01-31T10:41:23.488Z,43
2016-01-31T10:41:41.753Z,43
2016-01-31T10:42:00.050Z,43
2016-01-31T10:42:18.331Z,43
2016-01-31T10:42:36.616Z,43
2016-01-31T10:42:54.897Z,43
2016-01-31T10:43:13.178Z,43
2016-01-31T10:43:31.461Z,43
2016-01-31T10:43:49.758Z,43
2016-01-31T10:44:08.040Z,43
2016-01-31T10:44:26.308Z,43
2016-01-31T10:44:44.668Z,43
2016-01-31T10:45:02.933Z,43
2016-01-31T10:45:21.058Z,43
2016-01-31T10:45:39.346Z,43
2016-01-31T10:45:57.628Z,43
2016-01-31T10:46:15.925Z,43
2016-01-31T10:46:34.223Z,43
2016-01-31T10:46:52.505Z,43
2016-01-31T10:47:10.786Z,43
2016-01-31T10:47:29.117Z,43
2016-01-31T10:47:47.398Z,43
2016-01-31T10:48:05.684Z,43
2016-01-31T10:48:23.961Z,43
2016-01-31T10:48:42.244Z,43
2016-01-31T10:49:00.369Z,43
2016-01-31T10:49:18.650Z,43
2016-01-31T10:49:36.935Z,43
2016-01-31T10:49:55.233Z,43
2016-01-31T10:50:13.530Z,43
2016-01-31T10:50:31.811Z,43
2016-01-31T10:50:50.112Z,43
2016-01-31T10:51:08.394Z,43
2016-01-31T10:51:26.659Z,43
2016-01-31T10:51:44.928Z,43
2016-01-31T10:52:03.193Z,43
2016-01-31T10:52:21.459Z,43
2016-01-31T10:52:39.756Z,43
2016-01-31T10:52:58.039Z,43
2016-01-31T10:53:16.320Z,43
2016-01-31T10:53:34.602Z,43
2016-01-31T10:53:52.917Z,43
2016-01-31T10:54:11.198Z,43
2016-01-31T10:54:29.326Z,43
2016-01-31T10:54:47.658Z,43
2016-01-31T10:55:05.923Z,43
2016-01-31T10:55:24.204Z,43
2016-01-31T10:55:42.488Z,43
2016-01-31T10:56:00.785Z,43
2016-01-31T10:56:19.066Z,43
2016-01-31T10:56:37.363Z,43
2016-01-31T10:56:55.631Z,43
2016-01-31T10:57:13.897Z,43
2016-01-31T10:57:32.178Z,43
2016-01-31T10:57:50.446Z,43
2016-01-31T10:58:08.743Z,43
2016-01-31T10:58:27.040Z,43
2016-01-31T10:58:45.326Z,43
2016-01-31T10:59:03.607Z,43
2016-01-31T10:59:21.919Z,43
2016-01-31T10:59:40.201Z,43
2016-01-31T10:59:58.469Z,43
2016-01-31T11:00:16.735Z,43
2016-01-31T11:00:35.032Z,43
2016-01-31T11:00:53.319Z,43
2016-01-31T11:01:11.585Z,43
2016-01-31T11:01:29.866Z,43
2016-01-31T11:01:48.149Z,43
2016-01-31T11:02:06.446Z,43
2016-01-31T11:02:24.712Z,43
2016-01-31T11:02:42.993Z,43
2016-01-31T11:03:01.121Z,43
2016-01-31T11:03:19.433Z,43
2016-01-31T11:03:37.730Z,43
2016-01-31T11:03:55.999Z,43
2016-01-31T11:04:14.265Z,43
2016-01-31T11:04:32.546Z,43
2016-01-31T11:04:50.846Z,43
2016-01-31T11:05:09.127Z,43
2016-01-31T11:05:27.409Z,43
2016-01-31T11:05:45.706Z,43
2016-01-31T11:06:03.990Z,43
2016-01-31T11:06:22.240Z,43
2016-01-31T11:06:40.522Z,43
2016-01-31T11:06:58.790Z,43
2016-01-31T11:07:17.103Z,43
2016-01-31T11:07:35.400Z,43
2016-01-31T11:07:53.667Z,43
2016-01-31T11:08:11.933Z,43
2016-01-31T11:08:30.198Z,43
2016-01-31T11:08:48.480Z,43
2016-01-31T11:09:06.764Z,43
2016-01-31T11:09:25.045Z,43
2016-01-31T11:09:43.346Z,43
2016-01-31T11:10:01.646Z,43
2016-01-31T11:10:19.927Z,43
2016-01-31T11:10:38.224Z,43
2016-01-31T11:10:56.523Z,43
2016-01-31T11:11:14.788Z,43
2016-01-31T11:11:33.085Z,43
2016-01-31T11:11:51.401Z,43
2016-01-31T11:12:09.682Z,44
2016-01-31T11:12:27.995Z,44
2016-01-31T11:12:46.260Z,44
2016-01-31T13:24:18.576Z,43
2016-01-31T13:24:36.842Z,43
2016-01-31T13:24:55.107Z,42
2016-01-31T13:25:13.392Z,42
2016-01-31T13:25:31.657Z,41
2016-01-31T13:25:49.923Z,42
2016-01-31T13:26:08.204Z,41
2016-01-31T13:26:26.488Z,40
2016-01-31T13:26:44.756Z,40
2016-01-31T13:27:03.037Z,41
2016-01-31T13:27:21.336Z,40
2016-01-31T13:27:39.633Z,42
2016-01-31T13:27:57.992Z,42
2016-01-31T13:28:16.323Z,42
2016-01-31T13:28:34.589Z,43
2016-01-31T13:28:52.886Z,43
2016-01-31T13:29:11.167Z,43
2016-01-31T13:29:29.483Z,43
2016-01-31T13:29:47.826Z,43
2016-01-31T13:30:06.108Z,43
2016-01-31T13:30:24.422Z,43
2016-01-31T13:30:42.703Z,43
2016-01-31T13:31:01.157Z,43
2016-01-31T14:41:54.900Z,36
2016-01-31T14:42:12.900Z,37
2016-01-31T14:42:31.228Z,38
2016-01-31T14:42:49.497Z,40
2016-01-31T14:43:07.778Z,40
2016-01-31T14:43:26.060Z,40
2016-01-31T14:43:44.375Z,41
2016-01-31T14:44:02.672Z,41
2016-01-31T14:44:21.141Z,41
2016-01-31T14:44:39.441Z,42
2016-01-31T14:44:57.722Z,42
2016-01-31T14:45:16.003Z,42
2016-01-31T14:45:34.284Z,42
2016-01-31T14:45:52.569Z,42
2016-01-31T14:46:10.865Z,42
2016-01-31T14:46:29.116Z,42
2016-01-31T14:46:47.400Z,42
2016-01-31T14:47:05.681Z,43
2016-01-31T14:47:24.009Z,43
2016-01-31T14:47:42.262Z,43
2016-01-31T14:48:00.559Z,43
2016-01-31T14:54:47.068Z,40
2016-01-31T14:55:05.351Z,40
2016-01-31T14:55:23.622Z,39
2016-01-31T14:55:41.903Z,38
2016-01-31T14:56:00.216Z,38
2016-01-31T14:56:18.640Z,38
2016-01-31T14:56:37.281Z,38
2016-01-31T14:56:55.844Z,38
2016-01-31T14:57:14.175Z,38
2016-01-31T14:57:37.491Z,38
2016-01-31T14:57:55.772Z,38
2016-01-31T14:58:14.041Z,38
2016-01-31T14:58:32.354Z,38
2016-01-31T14:58:50.635Z,38
2016-01-31T14:59:08.900Z,38
2016-01-31T14:59:27.185Z,38
2016-01-31T14:59:45.466Z,38
2016-01-31T15:00:03.747Z,38
2016-01-31T15:00:22.030Z,38
2016-01-31T15:00:40.296Z,38
2016-01-31T15:00:58.609Z,38
2016-01-31T15:01:16.893Z,38
2016-01-31T15:01:35.190Z,38
2016-01-31T15:01:53.487Z,38
2016-01-31T15:02:11.771Z,38
2016-01-31T15:02:29.927Z,38
2016-01-31T15:02:48.208Z,38
2016-01-31T15:03:06.521Z,38
2016-01-31T15:03:24.648Z,38
2016-01-31T15:03:42.945Z,38
2016-01-31T15:04:01.210Z,38
2016-01-31T15:04:19.495Z,38
2016-01-31T15:04:37.807Z,38
2016-01-31T15:04:56.073Z,38
2016-01-31T15:05:14.357Z,38
2016-01-31T15:05:32.654Z,38
2016-01-31T15:05:50.935Z,38
2016-01-31T15:06:09.216Z,38
2016-01-31T15:06:27.485Z,38
2016-01-31T15:06:45.766Z,38
2016-01-31T15:07:04.047Z,38
2016-01-31T15:07:22.316Z,38
2016-01-31T15:07:40.613Z,38
2016-01-31T15:07:58.894Z,38
2016-01-31T15:08:17.177Z,38
2016-01-31T15:08:35.463Z,38
2016-01-31T15:08:53.822Z,38
2016-01-31T15:09:12.103Z,38
2016-01-31T15:09:30.387Z,38
2016-01-31T15:09:48.669Z,38
2016-01-31T15:10:06.966Z,38
2016-01-31T15:10:25.233Z,38
2016-01-31T15:10:43.518Z,38
2016-01-31T15:11:01.784Z,38
2016-01-31T15:11:20.084Z,38
2016-01-31T15:11:38.381Z,38
2016-01-31T15:11:56.521Z,38
2016-01-31T15:12:14.024Z,38
2016-01-31T15:12:32.352Z,38
2016-01-31T15:12:50.602Z,38
2016-01-31T15:13:08.931Z,38
2016-01-31T15:13:27.229Z,38
2016-01-31T15:13:45.511Z,38
2016-01-31T15:14:03.823Z,38
2016-01-31T15:14:22.107Z,38
2016-01-31T15:14:40.451Z,38
2016-01-31T15:14:58.764Z,38
2016-01-31T15:15:17.032Z,38
2016-01-31T15:15:35.329Z,38
2016-01-31T15:15:53.735Z,38
2016-01-31T15:16:12.017Z,38
2016-01-31T15:16:30.316Z,38
2016-01-31T15:16:48.612Z,38
2016-01-31T15:17:06.894Z,38
2016-01-31T15:17:25.209Z,38
2016-01-31T15:17:43.490Z,38
2016-01-31T15:18:01.772Z,38
2016-01-31T15:18:20.070Z,38
2016-01-31T15:18:38.366Z,38
2016-01-31T15:18:56.632Z,38
2016-01-31T15:19:14.251Z,38
2016-01-31T15:19:31.876Z,38
2016-01-31T15:19:50.143Z,38
2016-01-31T15:20:08.265Z,38
2016-01-31T15:20:26.539Z,38
2016-01-31T15:20:44.820Z,38
2016-01-31T15:21:03.102Z,38
2016-01-31T15:21:21.392Z,38
2016-01-31T15:21:39.736Z,38
2016-01-31T15:21:58.017Z,38
2016-01-31T15:22:16.293Z,38
2016-01-31T15:22:52.777Z,38
2016-01-31T15:23:11.074Z,38
2016-01-31T15:23:29.335Z,38
2016-01-31T15:23:47.678Z,38
2016-01-31T15:24:05.960Z,38
2016-01-31T15:24:42.428Z,38
2016-01-31T15:25:00.710Z,38
2016-01-31T15:25:18.990Z,38
2016-01-31T15:25:37.255Z,38
2016-01-31T15:25:55.537Z,38
2016-01-31T15:26:13.834Z,38
2016-01-31T15:26:32.131Z,38
2016-01-31T15:26:50.460Z,38
2016-01-31T15:27:08.741Z,38
2016-01-31T15:27:27.052Z,38
2016-01-31T15:27:45.334Z,38
2016-01-31T15:28:03.646Z,38
2016-01-31T15:28:21.943Z,38
2016-01-31T15:28:40.209Z,38
2016-01-31T15:28:58.505Z,38
2016-01-31T15:29:16.771Z,38
2016-01-31T15:29:35.069Z,38
2016-01-31T15:29:53.381Z,38
2016-01-31T15:30:11.663Z,38
2016-01-31T15:30:29.962Z,38
2016-01-31T15:30:48.212Z,38
2016-01-31T15:31:06.541Z,38
2016-01-31T15:31:24.839Z,38
2016-01-31T15:31:43.136Z,38
2016-01-31T15:32:01.418Z,38
2016-01-31T15:32:19.714Z,38
2016-01-31T15:32:37.981Z,38
2016-01-31T15:32:56.278Z,38
2016-01-31T15:33:14.544Z,38
2016-01-31T15:33:32.859Z,38
2016-01-31T15:33:51.125Z,38
2016-01-31T15:34:09.453Z,38
2016-01-31T15:34:27.750Z,38
2016-01-31T15:34:45.877Z,38
2016-01-31T15:35:04.158Z,38
